Windy day in the Windy City!!

DPApilot

GUYSH! GUYSH! GUYSH!
METAR KDPA 262052Z 26024G53KT 6SM -RA FEW019 SCT027 BKN060 04/00 A2987 RMK AO2 PK WND 26053/2045 RAB48 SLP117 P0000 60000 T00440000 53034

Damn fun flying today!!
 
Top